Time;durP1;ratioP1;P1;durP2;ratioP2;P2;SDS_P1;SDS_P2;PMS_P1;PMS_P2;Temp;Humidity;BMP_temperature;BMP_pressure;BME280_temperature;BME280_humidity;BME280_pressure;Samples;Min_cycle;Max_cycle;Signal;HPM_P1;HPM_P2
2022/07/12 00:02:08;;;;;;;62.88;47.97;;;27.70;99.90;;;;;;5056064;28;20079;-69
2022/07/12 00:04:34;;;;;;;65.82;52.15;;;27.70;99.90;;;;;;5056287;28;20020;-70
2022/07/12 00:07:01;;;;;;;80.35;53.45;;;27.70;99.90;;;;;;5056163;28;20029;-70
2022/07/12 00:09:27;;;;;;;72.05;50.08;;;27.80;99.90;;;;;;5055892;28;20025;-70
2022/07/12 00:11:55;;;;;;;71.15;47.88;;;27.90;99.90;;;;;;5056044;28;20021;-70
2022/07/12 00:14:21;;;;;;;67.07;44.47;;;27.80;99.90;;;;;;5056087;28;20487;-70
2022/07/12 00:16:48;;;;;;;53.30;36.83;;;27.70;99.90;;;;;;5055702;28;20045;-69
2022/07/12 00:19:14;;;;;;;62.05;41.15;;;27.70;99.90;;;;;;5056001;28;20025;-69
2022/07/12 00:21:41;;;;;;;49.25;38.63;;;27.60;99.90;;;;;;5055956;28;20111;-69
2022/07/12 00:24:07;;;;;;;59.63;41.85;;;27.70;99.90;;;;;;5055656;28;20025;-69
2022/07/12 00:26:34;;;;;;;64.20;46.25;;;27.70;99.90;;;;;;5055771;28;20539;-70
2022/07/12 00:29:01;;;;;;;77.10;53.38;;;27.70;99.90;;;;;;5055773;28;20060;-70
2022/07/12 00:31:27;;;;;;;83.53;57.63;;;27.80;99.90;;;;;;5055514;28;20021;-70
2022/07/12 00:33:54;;;;;;;116.57;78.10;;;27.70;99.90;;;;;;5055657;28;20029;-70
2022/07/12 00:36:20;;;;;;;91.10;64.28;;;27.60;99.90;;;;;;5055711;28;20377;-69
2022/07/12 00:38:47;;;;;;;76.78;57.75;;;27.60;99.90;;;;;;5055341;28;20029;-69
2022/07/12 00:41:14;;;;;;;80.78;55.63;;;27.60;99.90;;;;;;5055549;28;20108;-72
2022/07/12 00:43:41;;;;;;;78.28;53.30;;;27.70;99.90;;;;;;5055409;28;20100;-70
2022/07/12 00:46:08;;;;;;;75.53;53.30;;;27.70;99.90;;;;;;5055296;28;20378;-70
2022/07/12 00:48:35;;;;;;;78.88;52.47;;;27.80;99.90;;;;;;5055358;28;20025;-70
2022/07/12 00:51:02;;;;;;;78.10;54.97;;;27.80;99.90;;;;;;5055404;28;20013;-70
2022/07/12 00:53:29;;;;;;;76.03;54.38;;;28.00;99.90;;;;;;5055249;28;20021;-70
2022/07/12 00:55:57;;;;;;;76.47;51.42;;;28.10;99.90;;;;;;5054672;28;20029;-70
2022/07/12 00:58:25;;;;;;;68.57;49.92;;;28.20;99.90;;;;;;5055169;28;20051;-70
2022/07/12 01:00:51;;;;;;;85.95;61.17;;;28.10;99.90;;;;;;5038519;28;20021;-69
2022/07/12 01:03:19;;;;;;;94.90;68.25;;;28.10;99.90;;;;;;5035073;28;20341;-70
2022/07/12 01:05:46;;;;;;;99.22;76.63;;;28.20;99.90;;;;;;5034241;28;20033;-70
2022/07/12 01:08:15;;;;;;;92.00;62.60;;;28.20;99.90;;;;;;5035037;28;20033;-70
2022/07/12 01:10:43;;;;;;;70.65;50.38;;;28.20;99.90;;;;;;5054935;28;20032;-69
2022/07/12 01:13:09;;;;;;;107.63;77.30;;;28.30;99.90;;;;;;5054828;28;20389;-71
2022/07/12 01:15:36;;;;;;;66.38;52.35;;;28.20;99.90;;;;;;5054386;28;20041;-70
2022/07/12 01:18:03;;;;;;;73.82;51.95;;;28.30;99.90;;;;;;5035160;28;20040;-69
2022/07/12 01:20:31;;;;;;;73.75;53.45;;;28.30;99.90;;;;;;5034910;28;20032;-70
2022/07/12 01:22:58;;;;;;;211.70;149.27;;;28.30;99.90;;;;;;5034699;28;20026;-70
2022/07/12 01:25:25;;;;;;;80.25;54.80;;;28.50;99.90;;;;;;5034808;28;20025;-71
2022/07/12 01:27:52;;;;;;;66.97;50.40;;;28.60;99.90;;;;;;5038246;28;20028;-69
2022/07/12 01:30:19;;;;;;;54.97;41.15;;;28.70;99.90;;;;;;5054555;28;20021;-70
2022/07/12 01:32:46;;;;;;;65.32;43.38;;;28.70;99.90;;;;;;5054467;28;20468;-70
2022/07/12 01:35:13;;;;;;;53.47;34.42;;;28.80;99.90;;;;;;5054482;28;20017;-70
2022/07/12 01:37:43;;;;;;;62.58;38.70;;;28.90;99.90;;;;;;5054459;28;20078;-70
2022/07/12 01:40:13;;;;;;;64.93;39.30;;;29.00;99.90;;;;;;5054373;28;20486;-70
2022/07/12 01:42:40;;;;;;;51.92;37.60;;;29.10;99.90;;;;;;5054277;28;20098;-70
2022/07/12 01:45:08;;;;;;;53.20;37.50;;;29.10;99.90;;;;;;5054410;28;20380;-69
2022/07/12 01:47:35;;;;;;;288.48;211.32;;;29.10;99.90;;;;;;5054336;28;20032;-70
2022/07/12 01:50:07;;;;;;;177.45;132.93;;;29.20;99.90;;;;;;5053900;28;20021;-70
2022/07/12 01:52:34;;;;;;;80.93;51.03;;;29.30;99.90;;;;;;5047667;28;20034;-70
2022/07/12 01:55:02;;;;;;;64.82;34.40;;;29.40;99.90;;;;;;5053878;28;20116;-70
2022/07/12 01:57:29;;;;;;;63.65;32.10;;;29.40;99.90;;;;;;5054155;28;20053;-68
2022/07/12 01:59:56;;;;;;;70.85;31.10;;;29.40;99.90;;;;;;5053785;28;20025;-69
2022/07/12 02:02:26;;;;;;;57.78;33.00;;;29.50;99.90;;;;;;5053182;28;20025;-70
2022/07/12 02:04:54;;;;;;;126.30;86.68;;;29.60;99.90;;;;;;5046391;28;20029;-70
2022/07/12 02:07:23;;;;;;;67.10;34.15;;;29.60;99.90;;;;;;5053733;28;20052;-70
2022/07/12 02:09:49;;;;;;;75.05;42.10;;;29.60;99.90;;;;;;5053761;28;20465;-71
2022/07/12 02:12:16;;;;;;;96.93;56.15;;;29.80;99.90;;;;;;5053866;28;20029;-72
2022/07/12 02:14:42;;;;;;;44.05;26.20;;;29.90;99.90;;;;;;5053619;28;20020;-72
2022/07/12 02:17:09;;;;;;;44.10;23.15;;;29.90;99.90;;;;;;5053448;28;20068;-72
2022/07/12 02:19:35;;;;;;;47.15;25.45;;;29.80;99.90;;;;;;5053686;28;20036;-72
2022/07/12 02:22:02;;;;;;;32.28;22.38;;;29.80;99.90;;;;;;5053503;28;20432;-71
2022/07/12 02:24:29;;;;;;;70.18;44.72;;;29.70;99.90;;;;;;5053551;28;20474;-71
2022/07/12 02:26:55;;;;;;;68.20;41.78;;;29.70;99.90;;;;;;5053551;28;20055;-72
2022/07/12 02:29:22;;;;;;;48.88;29.60;;;29.90;99.90;;;;;;5053286;28;20112;-71
2022/07/12 02:31:48;;;;;;;45.85;25.92;;;30.00;99.90;;;;;;5053442;28;20024;-71
2022/07/12 02:34:15;;;;;;;36.35;24.30;;;30.00;99.90;;;;;;5053576;28;20024;-72
2022/07/12 02:36:41;;;;;;;41.17;27.20;;;30.00;99.90;;;;;;5053190;28;20052;-71
2022/07/12 02:39:10;;;;;;;54.97;35.45;;;30.10;99.90;;;;;;5053521;28;20017;-70
2022/07/12 02:41:36;;;;;;;47.85;30.60;;;30.30;99.90;;;;;;5053310;28;20020;-71
2022/07/12 02:44:04;;;;;;;41.53;25.08;;;30.30;99.90;;;;;;5053133;28;20024;-70
2022/07/12 02:46:30;;;;;;;30.33;20.55;;;30.30;99.90;;;;;;5053349;28;20154;-70
2022/07/12 02:48:58;;;;;;;43.60;27.92;;;30.30;99.90;;;;;;5053174;28;20060;-70
2022/07/12 02:51:24;;;;;;;37.38;26.20;;;30.20;99.90;;;;;;5053073;28;20021;-70
2022/07/12 02:53:51;;;;;;;27.95;18.10;;;30.30;99.90;;;;;;5053159;28;20378;-70
2022/07/12 02:56:17;;;;;;;24.10;13.85;;;30.40;99.90;;;;;;5053166;28;20466;-70
2022/07/12 02:58:44;;;;;;;24.10;12.60;;;30.40;99.90;;;;;;5053117;28;20112;-70
2022/07/12 03:01:11;;;;;;;22.75;12.25;;;30.40;99.90;;;;;;5051806;28;20405;-71
2022/07/12 03:03:38;;;;;;;27.17;14.57;;;30.50;99.90;;;;;;5053073;28;20059;-69
2022/07/12 03:06:04;;;;;;;24.52;11.65;;;30.70;99.90;;;;;;5046832;28;20017;-70
2022/07/12 03:08:31;;;;;;;20.30;11.15;;;30.70;99.90;;;;;;5052380;28;20053;-69
2022/07/12 03:10:57;;;;;;;28.80;12.10;;;30.80;99.90;;;;;;5052408;28;20028;-70
2022/07/12 03:13:25;;;;;;;20.23;11.65;;;30.70;99.90;;;;;;5052614;28;20021;-70
2022/07/12 03:15:51;;;;;;;25.30;14.23;;;30.60;99.90;;;;;;5051826;28;20045;-69
2022/07/12 03:18:18;;;;;;;30.70;20.77;;;30.60;99.90;;;;;;5052239;28;20107;-70
2022/07/12 03:20:45;;;;;;;115.15;69.53;;;30.70;99.90;;;;;;5052494;28;20029;-70
2022/07/12 03:23:11;;;;;;;18.55;10.25;;;30.60;99.90;;;;;;5052392;28;20045;-70
2022/07/12 03:25:38;;;;;;;38.35;25.95;;;30.60;99.90;;;;;;5052717;28;20028;-70
2022/07/12 03:28:04;;;;;;;31.75;16.92;;;30.70;99.90;;;;;;5052815;28;20377;-70
2022/07/12 03:30:31;;;;;;;23.63;13.68;;;30.80;99.90;;;;;;5056426;28;20378;-70
2022/07/12 03:32:58;;;;;;;25.58;14.73;;;30.80;99.90;;;;;;5056795;28;20021;-70
2022/07/12 03:35:24;;;;;;;25.95;14.38;;;30.80;99.90;;;;;;5056731;28;20420;-70
2022/07/12 03:37:52;;;;;;;22.25;12.70;;;31.00;99.90;;;;;;5056565;28;20377;-70
2022/07/12 03:40:20;;;;;;;32.80;18.52;;;31.10;99.90;;;;;;5050141;28;20147;-69
2022/07/12 03:42:47;;;;;;;21.42;13.30;;;31.20;99.90;;;;;;5043734;28;20034;-70
2022/07/12 03:45:15;;;;;;;20.02;12.50;;;31.30;99.90;;;;;;5036482;28;20397;-68
2022/07/12 03:47:42;;;;;;;25.00;13.35;;;31.30;99.90;;;;;;5036531;28;20103;-70
2022/07/12 03:50:12;;;;;;;23.48;13.77;;;31.20;99.90;;;;;;5036838;28;20037;-70
2022/07/12 03:52:39;;;;;;;24.50;14.00;;;31.20;99.90;;;;;;5036128;28;20025;-69
2022/07/12 03:55:07;;;;;;;24.30;14.18;;;31.20;99.90;;;;;;5036480;28;20429;-70
2022/07/12 03:57:33;;;;;;;20.00;12.82;;;31.10;99.90;;;;;;5046076;28;20363;-69
2022/07/12 04:00:00;;;;;;;19.88;11.45;;;31.20;99.90;;;;;;5050591;28;20025;-69
2022/07/12 04:02:27;;;;;;;20.83;11.25;;;31.20;99.90;;;;;;5041652;28;20076;-67
2022/07/12 04:04:53;;;;;;;24.38;11.88;;;31.20;99.90;;;;;;5046913;28;20425;-70
2022/07/12 04:07:21;;;;;;;20.50;10.95;;;31.20;99.90;;;;;;5044796;28;20028;-67
2022/07/12 04:09:48;;;;;;;26.10;13.38;;;31.20;99.90;;;;;;5045243;28;20108;-67
2022/07/12 04:12:14;;;;;;;24.80;12.60;;;31.30;99.90;;;;;;5046559;28;20438;-68
2022/07/12 04:14:41;;;;;;;25.98;12.57;;;31.50;99.90;;;;;;5044603;28;20020;-67
2022/07/12 04:17:07;;;;;;;18.52;12.57;;;31.60;99.90;;;;;;5045306;28;20069;-68
2022/07/12 04:19:34;;;;;;;24.27;11.73;;;31.70;99.90;;;;;;5046153;28;20029;-67
2022/07/12 04:22:01;;;;;;;36.65;14.07;;;31.70;99.90;;;;;;5036475;28;20065;-70
2022/07/12 04:24:28;;;;;;;20.02;12.65;;;31.80;99.90;;;;;;5034197;28;20381;-68
2022/07/12 04:26:54;;;;;;;21.20;11.23;;;31.80;99.90;;;;;;5034002;28;20017;-73
2022/07/12 04:29:22;;;;;;;20.48;12.60;;;31.70;99.90;;;;;;5033729;28;20021;-70
2022/07/12 04:31:49;;;;;;;21.15;10.40;;;31.70;99.90;;;;;;5034098;28;20030;-65
2022/07/12 04:34:17;;;;;;;14.15;9.25;;;31.60;99.90;;;;;;5033722;28;20382;-72
2022/07/12 04:36:45;;;;;;;18.33;10.55;;;31.70;99.90;;;;;;5035182;28;20469;-73
2022/07/12 04:39:11;;;;;;;25.80;12.75;;;31.80;99.90;;;;;;5035628;28;20061;-73
2022/07/12 04:41:38;;;;;;;23.30;14.60;;;31.90;99.90;;;;;;5034178;28;20058;-70
2022/07/12 04:44:06;;;;;;;22.50;12.77;;;31.90;99.90;;;;;;5039552;28;20021;-71
2022/07/12 04:46:33;;;;;;;17.95;11.35;;;32.00;99.90;;;;;;5043514;28;20031;-71
2022/07/12 04:49:00;;;;;;;17.38;11.98;;;32.10;99.90;;;;;;5040895;28;20079;-72
2022/07/12 04:51:28;;;;;;;17.75;11.23;;;32.10;99.90;;;;;;5055128;28;20044;-72
2022/07/12 04:53:55;;;;;;;21.17;12.50;;;32.20;99.90;;;;;;5055369;28;20071;-72
2022/07/12 04:56:22;;;;;;;24.05;13.48;;;32.30;99.90;;;;;;5055331;28;20071;-72
2022/07/12 04:58:48;;;;;;;23.52;12.90;;;32.20;99.90;;;;;;5053804;28;20021;-73
2022/07/12 05:01:16;;;;;;;18.83;11.00;;;32.20;99.90;;;;;;5043444;28;20029;-77
2022/07/12 05:03:43;;;;;;;17.65;11.00;;;32.10;99.90;;;;;;5035143;28;20034;-76
2022/07/12 05:06:10;;;;;;;35.35;19.75;;;32.10;99.90;;;;;;5045533;28;20029;-73
2022/07/12 05:08:36;;;;;;;20.30;12.88;;;32.20;99.90;;;;;;5049133;28;20373;-72
2022/07/12 05:11:03;;;;;;;18.92;12.77;;;32.30;99.90;;;;;;5053406;28;20037;-72
2022/07/12 05:13:30;;;;;;;21.88;12.60;;;32.50;99.90;;;;;;5054957;28;20024;-72
2022/07/12 05:15:58;;;;;;;32.10;13.55;;;32.50;99.90;;;;;;5054851;28;20045;-72
2022/07/12 05:18:27;;;;;;;25.00;14.15;;;32.40;99.90;;;;;;5054955;28;20025;-72
2022/07/12 05:20:53;;;;;;;25.30;13.40;;;32.30;99.90;;;;;;5054745;28;20155;-71
2022/07/12 05:23:20;;;;;;;23.55;13.52;;;32.20;99.90;;;;;;5054830;28;20052;-70
2022/07/12 05:25:48;;;;;;;24.70;12.85;;;32.20;99.90;;;;;;5054793;28;20569;-72
2022/07/12 05:28:15;;;;;;;20.60;12.93;;;32.30;99.90;;;;;;5054557;28;20025;-69
2022/07/12 05:30:43;;;;;;;26.70;14.60;;;32.30;99.90;;;;;;5054843;28;20099;-70
2022/07/12 05:33:13;;;;;;;20.95;13.13;;;32.40;99.90;;;;;;5054718;28;20025;-71
2022/07/12 05:35:40;;;;;;;15.45;11.98;;;32.30;99.90;;;;;;5052183;28;20021;-68
2022/07/12 05:38:08;;;;;;;19.98;12.95;;;32.30;99.90;;;;;;5044010;28;20017;-68
2022/07/12 05:40:34;;;;;;;22.45;13.95;;;32.30;99.90;;;;;;5014643;28;20116;-69
2022/07/12 05:43:01;;;;;;;16.88;11.27;;;32.30;99.90;;;;;;5042823;28;20462;-68
2022/07/12 05:45:28;;;;;;;18.25;10.45;;;32.40;99.90;;;;;;5041596;28;20144;-70
2022/07/12 05:47:55;;;;;;;19.35;10.93;;;32.50;99.90;;;;;;5044105;28;20021;-70
2022/07/12 05:50:22;;;;;;;13.90;10.57;;;32.70;99.60;;;;;;5044458;28;20388;-70
2022/07/12 05:55:35;;;;;;;15.77;10.50;;;32.80;99.10;;;;;;5041874;28;20021;-70
2022/07/12 05:58:02;;;;;;;16.73;9.57;;;32.90;98.20;;;;;;5041977;28;20409;-70
2022/07/12 06:00:29;;;;;;;14.63;9.50;;;33.00;98.10;;;;;;5041595;28;20025;-70
2022/07/12 06:02:55;;;;;;;15.80;10.60;;;33.00;98.20;;;;;;5033977;28;20025;-70
2022/07/12 06:05:22;;;;;;;27.13;10.57;;;33.10;98.10;;;;;;5034201;28;20051;-69
2022/07/12 06:07:48;;;;;;;17.55;10.00;;;33.10;97.60;;;;;;5036268;28;20040;-70
2022/07/12 06:10:15;;;;;;;17.83;8.77;;;33.10;96.20;;;;;;5043148;28;20052;-68
2022/07/12 06:12:42;;;;;;;13.40;7.82;;;33.00;96.00;;;;;;5047838;28;20599;-68
2022/07/12 06:15:08;;;;;;;13.35;8.50;;;32.90;94.90;;;;;;5034494;28;20021;-69
2022/07/12 06:17:35;;;;;;;11.68;7.10;;;32.80;96.00;;;;;;5033574;28;20038;-68
2022/07/12 06:20:03;;;;;;;18.42;11.18;;;32.70;95.50;;;;;;5033620;28;20060;-70
2022/07/12 06:22:30;;;;;;;19.13;13.05;;;32.70;95.80;;;;;;5033497;28;20479;-71
2022/07/12 06:24:56;;;;;;;22.25;13.52;;;32.90;95.90;;;;;;5034211;28;20159;-69
2022/07/12 06:27:23;;;;;;;22.13;12.45;;;33.10;96.20;;;;;;5033520;28;20026;-70
2022/07/12 06:29:50;;;;;;;13.90;9.55;;;33.20;96.20;;;;;;5032319;28;20390;-71
2022/07/12 06:32:19;;;;;;;15.93;10.60;;;33.30;95.80;;;;;;5033524;28;20045;-69
2022/07/12 06:34:46;;;;;;;16.77;9.90;;;33.20;95.20;;;;;;5033396;28;20026;-70
2022/07/12 06:37:14;;;;;;;23.42;12.65;;;33.20;95.20;;;;;;5034493;28;20025;-71
2022/07/12 06:39:40;;;;;;;17.20;10.18;;;33.10;96.20;;;;;;5033414;28;20471;-69
2022/07/12 06:42:07;;;;;;;26.67;10.98;;;33.00;96.90;;;;;;5033103;28;20033;-70
2022/07/12 06:44:35;;;;;;;18.77;9.57;;;32.60;98.10;;;;;;5033224;28;20028;-69
2022/07/12 06:47:01;;;;;;;23.73;9.13;;;32.40;98.50;;;;;;5033195;28;20033;-71
2022/07/12 06:49:28;;;;;;;23.10;7.60;;;32.20;99.20;;;;;;5032887;28;20029;-68
2022/07/12 06:51:54;;;;;;;23.45;8.25;;;32.00;99.70;;;;;;5033146;28;20033;-68
2022/07/12 06:54:21;;;;;;;14.80;7.65;;;31.90;99.90;;;;;;5033112;28;20033;-68
2022/07/12 06:56:47;;;;;;;49.50;13.38;;;31.70;99.90;;;;;;5032856;28;20064;-69
2022/07/12 06:59:14;;;;;;;40.60;15.63;;;31.50;99.90;;;;;;5035576;28;20029;-69
2022/07/12 07:01:40;;;;;;;38.65;21.40;;;30.80;99.90;;;;;;5041448;28;20017;-68
2022/07/12 07:04:07;;;;;;;42.55;21.35;;;30.20;99.90;;;;;;5032259;28;20022;-68
2022/07/12 07:06:33;;;;;;;26.73;13.07;;;29.90;99.90;;;;;;5033153;28;20394;-68
2022/07/12 07:09:00;;;;;;;20.27;10.40;;;29.80;99.90;;;;;;5033055;28;20018;-68
2022/07/12 07:11:27;;;;;;;17.50;8.98;;;29.90;99.90;;;;;;5032908;28;20033;-68
2022/07/12 07:13:55;;;;;;;14.10;8.63;;;29.90;99.90;;;;;;5033009;28;20108;-68
2022/07/12 07:16:24;;;;;;;21.05;10.52;;;30.00;99.90;;;;;;5032722;28;20121;-67
2022/07/12 07:18:50;;;;;;;20.65;9.35;;;30.00;99.90;;;;;;5032337;28;20030;-68
2022/07/12 07:21:17;;;;;;;16.95;9.02;;;30.00;99.90;;;;;;5033010;28;20432;-68
2022/07/12 07:23:43;;;;;;;21.70;10.23;;;30.00;99.90;;;;;;5032944;28;20021;-68
2022/07/12 07:26:12;;;;;;;14.60;8.38;;;29.80;99.90;;;;;;5032839;28;20023;-68
2022/07/12 07:31:14;;;;;;;18.33;9.32;;;29.80;99.90;;;;;;5044179;28;20035;-68
2022/07/12 07:33:40;;;;;;;18.83;9.20;;;29.80;99.90;;;;;;5032598;28;20032;-67
2022/07/12 07:36:07;;;;;;;20.23;10.48;;;29.70;99.90;;;;;;5032848;28;20036;-69
2022/07/12 07:38:33;;;;;;;17.48;10.27;;;29.60;99.90;;;;;;5032964;28;20030;-69
2022/07/12 07:41:00;;;;;;;22.08;10.68;;;29.60;99.90;;;;;;5032702;28;20364;-70
2022/07/12 07:43:26;;;;;;;17.23;9.35;;;29.60;99.90;;;;;;5032348;28;20026;-69
2022/07/12 07:45:53;;;;;;;12.85;7.55;;;29.50;99.90;;;;;;5031397;28;20025;-64
2022/07/12 07:48:20;;;;;;;10.63;6.97;;;29.40;99.90;;;;;;5030534;28;20029;-67
2022/07/12 07:50:46;;;;;;;9.68;5.43;;;29.40;99.90;;;;;;5030780;28;20025;-67
2022/07/12 07:53:14;;;;;;;15.25;6.80;;;29.30;99.90;;;;;;5030661;28;20105;-67
2022/07/12 07:55:41;;;;;;;9.18;5.78;;;29.30;99.90;;;;;;5030763;28;20034;-67
2022/07/12 07:58:07;;;;;;;10.80;5.95;;;29.30;99.90;;;;;;5031148;28;20018;-68
2022/07/12 08:00:34;;;;;;;11.40;6.53;;;29.30;99.90;;;;;;5031764;28;20381;-69
2022/07/12 08:03:00;;;;;;;15.95;7.65;;;29.30;99.90;;;;;;5032626;28;20024;-67
2022/07/12 08:05:27;;;;;;;12.85;6.78;;;29.50;99.90;;;;;;5032738;28;20014;-68
2022/07/12 08:07:53;;;;;;;13.00;6.68;;;29.50;99.90;;;;;;5032620;28;20022;-67
2022/07/12 08:10:20;;;;;;;12.80;6.15;;;29.40;99.90;;;;;;5032265;28;20537;-67
2022/07/12 08:12:46;;;;;;;13.30;8.90;;;29.40;99.90;;;;;;5032575;28;20049;-69
2022/07/12 08:15:13;;;;;;;31.40;16.80;;;29.40;99.90;;;;;;5032737;28;20367;-68
2022/07/12 08:17:39;;;;;;;28.48;13.75;;;29.40;99.90;;;;;;5035936;28;20080;-68
2022/07/12 08:20:06;;;;;;;26.23;15.25;;;29.30;99.90;;;;;;5035946;28;20099;-69
2022/07/12 08:22:33;;;;;;;14.70;9.13;;;29.40;99.90;;;;;;5037319;28;20022;-69
2022/07/12 08:24:59;;;;;;;13.85;8.77;;;29.40;99.90;;;;;;5035846;28;20030;-67
2022/07/12 08:27:26;;;;;;;10.95;6.40;;;29.40;99.90;;;;;;5040218;28;20108;-69
2022/07/12 08:29:52;;;;;;;14.50;7.78;;;29.40;99.90;;;;;;5046824;28;20024;-69
2022/07/12 08:32:19;;;;;;;17.73;9.82;;;29.40;99.90;;;;;;5049221;28;20044;-69
2022/07/12 08:34:45;;;;;;;20.60;9.85;;;29.30;99.90;;;;;;5043086;28;20032;-71
2022/07/12 08:37:12;;;;;;;18.90;7.88;;;29.30;99.90;;;;;;5045133;28;20415;-68
2022/07/12 08:39:40;;;;;;;12.45;7.05;;;29.40;99.90;;;;;;5035543;28;20371;-69
2022/07/12 08:42:09;;;;;;;18.08;7.88;;;29.50;99.90;;;;;;5035008;28;20104;-68
2022/07/12 08:44:35;;;;;;;12.75;7.82;;;29.50;99.90;;;;;;5035526;28;20482;-68
2022/07/12 08:47:02;;;;;;;11.80;7.07;;;29.50;99.90;;;;;;5035638;28;20493;-71
2022/07/12 08:49:28;;;;;;;15.23;8.85;;;29.50;99.90;;;;;;5035221;28;20030;-70
2022/07/12 08:51:55;;;;;;;19.65;11.00;;;29.40;99.90;;;;;;5035512;28;20383;-69
2022/07/12 08:54:21;;;;;;;17.17;8.43;;;29.40;99.90;;;;;;5035430;28;20057;-69
2022/07/12 08:56:48;;;;;;;16.95;8.25;;;29.40;99.90;;;;;;5035228;28;20087;-69
2022/07/12 08:59:18;;;;;;;16.33;7.38;;;29.30;99.90;;;;;;5045248;28;20057;-69
2022/07/12 09:01:51;;;;;;;13.85;6.93;;;29.40;99.90;;;;;;5035818;28;20021;-68
2022/07/12 09:04:21;;;;;;;16.90;7.43;;;29.40;99.90;;;;;;5035292;28;20052;-68
2022/07/12 09:06:48;;;;;;;17.58;7.80;;;29.50;99.90;;;;;;5035101;28;20028;-68
2022/07/12 09:09:36;;;;;;;17.50;8.80;;;29.50;99.90;;;;;;5034878;28;20113;-69
2022/07/12 09:12:03;;;;;;;18.10;9.32;;;29.50;99.90;;;;;;5035019;28;20056;-67
2022/07/12 09:14:31;;;;;;;21.05;10.77;;;29.50;99.90;;;;;;5035284;28;20429;-68
2022/07/12 09:17:00;;;;;;;21.05;11.73;;;29.50;99.90;;;;;;5034739;28;20103;-67
2022/07/12 09:19:27;;;;;;;22.17;12.00;;;29.50;99.90;;;;;;5034933;28;20474;-68
2022/07/12 09:21:55;;;;;;;22.67;13.60;;;29.40;99.90;;;;;;5034922;28;20290;-68
2022/07/12 09:24:26;;;;;;;18.50;10.75;;;29.40;99.90;;;;;;5036097;28;20105;-69
2022/07/12 09:26:59;;;;;;;19.30;9.98;;;29.30;99.90;;;;;;5034613;28;20025;-69
2022/07/12 09:29:26;;;;;;;15.38;9.40;;;29.30;99.90;;;;;;5034877;28;20032;-69
2022/07/12 09:37:26;;;;;;;12.40;7.20;;;29.30;99.90;;;;;;5035211;28;20025;-70
2022/07/12 09:39:54;;;;;;;9.55;5.63;;;29.30;99.90;;;;;;5037818;28;20040;-69
2022/07/12 09:42:22;;;;;;;12.93;6.50;;;29.20;99.90;;;;;;5044067;28;20033;-69
2022/07/12 09:44:49;;;;;;;20.40;10.35;;;29.20;99.90;;;;;;5039869;28;20113;-69
2022/07/12 09:47:16;;;;;;;18.20;12.85;;;29.20;99.90;;;;;;5044442;28;20024;-69
2022/07/12 09:49:45;;;;;;;24.38;18.02;;;29.20;99.90;;;;;;5044119;28;20026;-67
2022/07/12 09:52:17;;;;;;;29.95;16.42;;;29.20;99.90;;;;;;5043064;28;20014;-70
2022/07/12 09:54:44;;;;;;;;;;;29.30;99.90;;;;;;5038572;28;20028;-69
2022/07/12 09:57:20;;;;;;;22.13;14.52;;;29.40;99.90;;;;;;5042510;28;19963;-67
2022/07/12 09:59:50;;;;;;;23.83;12.68;;;29.30;99.90;;;;;;5054661;28;20033;-69
2022/07/12 10:02:17;;;;;;;18.58;11.60;;;29.40;99.90;;;;;;5055112;28;20412;-69
2022/07/12 10:04:46;;;;;;;16.52;10.35;;;29.40;99.90;;;;;;5055290;28;20032;-69
2022/07/12 10:07:15;;;;;;;17.05;9.82;;;29.50;99.90;;;;;;5054710;28;20064;-71
2022/07/12 10:10:02;;;;;;;12.77;8.90;;;29.30;99.90;;;;;;5054827;28;20029;-70
2022/07/12 10:12:29;;;;;;;42.28;31.67;;;29.20;99.90;;;;;;5052683;28;20056;-70
2022/07/12 10:15:03;;;;;;;61.42;45.58;;;29.20;99.90;;;;;;5044879;28;20071;-71
2022/07/12 10:17:32;;;;;;;70.25;48.97;;;29.30;99.90;;;;;;5048631;28;20087;-71
2022/07/12 10:20:22;;;;;;;62.08;44.80;;;29.20;99.90;;;;;;5034580;28;20026;-68
2022/07/12 10:22:55;;;;;;;49.40;29.92;;;29.20;99.90;;;;;;5034531;28;20596;-70
2022/07/12 10:25:38;;;;;;;47.08;24.98;;;29.30;99.90;;;;;;5034220;28;20061;-69
2022/07/12 10:28:05;;;;;;;38.92;22.88;;;29.20;99.90;;;;;;5041726;28;20365;-70
2022/07/12 10:30:43;;;;;;;40.00;21.05;;;29.20;99.90;;;;;;5041728;28;20036;-71
2022/07/12 10:33:23;;;;;;;49.90;30.05;;;29.10;99.90;;;;;;5044212;28;20075;-71
2022/07/12 10:36:03;;;;;;;64.82;34.60;;;29.00;99.90;;;;;;5042816;28;20485;-69
2022/07/12 10:38:30;;;;;;;60.70;43.75;;;29.00;99.90;;;;;;5042261;28;20229;-69
2022/07/12 10:40:57;;;;;;;72.50;55.97;;;29.00;99.90;;;;;;5043614;28;20478;-69
2022/07/12 10:46:19;;;;;;;43.13;28.75;;;28.80;99.90;;;;;;5049709;28;20442;-72
2022/07/12 10:48:47;;;;;;;33.20;21.27;;;28.60;99.90;;;;;;5049760;28;20579;-72
2022/07/12 10:51:16;;;;;;;28.80;19.55;;;28.50;99.90;;;;;;5049924;28;20025;-72
2022/07/12 10:53:45;;;;;;;29.17;17.83;;;28.50;99.90;;;;;;5049265;28;20118;-74
2022/07/12 10:56:15;;;;;;;23.42;17.85;;;28.40;99.90;;;;;;5048296;28;20021;-69
2022/07/12 10:58:55;;;;;;;27.23;15.77;;;28.30;99.90;;;;;;5039274;28;20075;-70
2022/07/12 11:01:26;;;;;;;17.58;11.02;;;28.20;99.90;;;;;;5043859;28;20447;-69
2022/07/12 11:03:57;;;;;;;20.15;11.25;;;28.20;99.90;;;;;;5039631;28;20045;-71
2022/07/12 11:06:25;;;;;;;105.82;80.65;;;28.10;99.90;;;;;;5032206;28;20112;-70
2022/07/12 11:08:54;;;;;;;151.35;104.00;;;28.00;99.90;;;;;;5032113;28;20454;-69
2022/07/12 11:11:22;;;;;;;74.30;53.20;;;27.90;99.90;;;;;;5031874;28;20520;-70
2022/07/12 11:13:49;;;;;;;74.60;47.70;;;27.90;99.90;;;;;;5032085;28;20100;-72
2022/07/12 11:16:17;;;;;;;61.15;45.05;;;27.90;99.90;;;;;;5032138;28;20029;-70
2022/07/12 11:18:45;;;;;;;43.85;31.30;;;27.80;99.90;;;;;;5048822;28;20324;-70
2022/07/12 11:21:12;;;;;;;20.67;12.45;;;27.70;99.90;;;;;;5049111;28;20498;-71
2022/07/12 11:23:40;;;;;;;18.42;14.48;;;27.60;99.90;;;;;;5044899;28;20041;-71
2022/07/12 11:26:08;;;;;;;10.55;6.88;;;27.50;99.90;;;;;;5043597;28;20425;-69
2022/07/12 11:28:35;;;;;;;8.15;6.15;;;27.50;99.90;;;;;;5041713;28;20047;-71
2022/07/12 11:31:03;;;;;;;11.20;7.47;;;27.50;99.90;;;;;;5045169;28;20029;-69
2022/07/12 11:33:33;;;;;;;15.43;8.32;;;27.60;99.90;;;;;;5045399;28;20478;-69
2022/07/12 11:36:02;;;;;;;14.65;8.52;;;27.60;99.90;;;;;;5041301;28;20099;-69
2022/07/12 11:38:29;;;;;;;15.70;9.45;;;27.50;99.90;;;;;;5042042;28;20018;-70
2022/07/12 11:40:57;;;;;;;16.27;9.85;;;27.40;99.90;;;;;;5042727;28;20163;-70
2022/07/12 11:43:25;;;;;;;17.88;11.75;;;27.40;99.90;;;;;;5044739;28;20026;-71
2022/07/12 11:45:55;;;;;;;16.35;11.55;;;27.30;99.90;;;;;;5047811;28;20107;-71
2022/07/12 11:48:22;;;;;;;13.93;9.50;;;27.20;99.90;;;;;;5044345;28;20553;-67
2022/07/12 11:50:52;;;;;;;12.10;8.95;;;27.10;99.90;;;;;;5038087;28;20064;-67
2022/07/12 11:53:21;;;;;;;8.07;7.07;;;27.00;99.90;;;;;;5039961;28;20067;-67
2022/07/12 11:55:50;;;;;;;11.75;8.63;;;27.00;99.90;;;;;;5045162;28;20473;-67
2022/07/12 11:58:18;;;;;;;74.90;55.92;;;26.90;99.90;;;;;;5045307;28;20354;-69
2022/07/12 12:00:46;;;;;;;12.55;8.13;;;27.00;99.90;;;;;;5045920;28;20055;-70
2022/07/12 12:03:16;;;;;;;7.03;4.88;;;26.90;99.90;;;;;;5044604;28;20386;-70
2022/07/12 12:05:43;;;;;;;8.43;5.35;;;26.90;99.90;;;;;;5043730;28;20092;-74
2022/07/12 12:08:12;;;;;;;6.30;4.05;;;26.90;99.90;;;;;;5044194;28;20024;-71
2022/07/12 12:10:41;;;;;;;7.18;4.47;;;26.90;99.90;;;;;;5061222;23;20024;-72
2022/07/12 12:13:15;;;;;;;26.35;20.50;;;26.90;99.90;;;;;;5025208;28;20029;-71
2022/07/12 12:15:51;;;;;;;16.35;10.05;;;26.90;99.90;;;;;;5025365;28;20083;-71
2022/07/12 12:18:27;;;;;;;9.10;5.22;;;26.90;99.90;;;;;;5024987;28;20464;-69
2022/07/12 12:20:58;;;;;;;6.40;4.25;;;26.90;99.90;;;;;;5025660;28;20032;-70
2022/07/12 12:23:25;;;;;;;7.47;5.22;;;26.90;99.90;;;;;;5026879;28;20405;-70
2022/07/12 12:25:52;;;;;;;7.38;4.95;;;26.90;99.90;;;;;;5025244;28;20036;-71
2022/07/12 12:28:19;;;;;;;9.02;4.88;;;26.90;99.90;;;;;;5024355;28;20383;-71
2022/07/12 12:30:56;;;;;;;11.07;4.70;;;26.90;99.90;;;;;;5026368;28;20013;-71
2022/07/12 12:33:44;;;;;;;6.90;5.13;;;27.00;99.90;;;;;;5035076;28;20071;-70
2022/07/12 12:36:22;;;;;;;12.10;5.18;;;27.00;99.90;;;;;;5026765;28;20021;-72
2022/07/12 12:38:51;;;;;;;8.65;4.97;;;27.10;99.90;;;;;;5025164;28;20418;-71
2022/07/12 12:41:19;;;;;;;10.07;4.50;;;27.10;99.90;;;;;;5024130;28;20029;-71
2022/07/12 12:43:45;;;;;;;5.43;4.75;;;27.20;99.90;;;;;;5024386;28;20057;-71
2022/07/12 12:46:12;;;;;;;13.95;5.43;;;27.20;99.90;;;;;;5024877;28;20390;-71
2022/07/12 12:48:47;;;;;;;8.35;5.18;;;27.20;99.90;;;;;;5025861;28;20522;-71